sensor_id;sensor_type;location;lat;lon;timestamp;pressure;altitude;pressure_sealevel;temperature;humidity
50774;BME280;36745;48.544;8.918;2023-03-04T00:01:39;97859.72;;;-0.67;75.39
50774;BME280;36745;48.544;8.918;2023-03-04T00:04:59;97855.09;;;-0.66;75.04
50774;BME280;36745;48.544;8.918;2023-03-04T00:08:19;97855.25;;;-0.75;75.08
50774;BME280;36745;48.544;8.918;2023-03-04T00:11:39;97855.69;;;-0.73;75.78
50774;BME280;36745;48.544;8.918;2023-03-04T00:14:59;97855.53;;;-0.80;75.27
50774;BME280;36745;48.544;8.918;2023-03-04T00:18:19;97858.00;;;-0.91;75.23
50774;BME280;36745;48.544;8.918;2023-03-04T00:21:39;97861.50;;;-0.90;75.49
50774;BME280;36745;48.544;8.918;2023-03-04T00:24:59;97859.06;;;-0.95;76.11
50774;BME280;36745;48.544;8.918;2023-03-04T00:28:19;97860.56;;;-0.98;76.73
50774;BME280;36745;48.544;8.918;2023-03-04T00:31:39;97863.78;;;-0.92;76.35
50774;BME280;36745;48.544;8.918;2023-03-04T00:34:59;97859.78;;;-0.98;76.42
50774;BME280;36745;48.544;8.918;2023-03-04T00:38:18;97856.00;;;-0.94;76.17
50774;BME280;36745;48.544;8.918;2023-03-04T00:41:38;97852.63;;;-1.06;77.02
50774;BME280;36745;48.544;8.918;2023-03-04T00:44:58;97855.53;;;-0.80;76.35
50774;BME280;36745;48.544;8.918;2023-03-04T00:48:18;97851.00;;;-0.76;75.88
50774;BME280;36745;48.544;8.918;2023-03-04T00:51:37;97851.53;;;-0.86;75.96
50774;BME280;36745;48.544;8.918;2023-03-04T00:54:57;97856.31;;;-1.14;75.94
50774;BME280;36745;48.544;8.918;2023-03-04T00:58:17;97853.88;;;-1.19;77.14
50774;BME280;36745;48.544;8.918;2023-03-04T01:01:37;97852.28;;;-1.20;76.47
50774;BME280;36745;48.544;8.918;2023-03-04T01:04:56;97851.56;;;-1.17;76.92
50774;BME280;36745;48.544;8.918;2023-03-04T01:08:16;97840.16;;;-1.27;76.29
50774;BME280;36745;48.544;8.918;2023-03-04T01:11:36;97842.25;;;-1.36;76.75
50774;BME280;36745;48.544;8.918;2023-03-04T01:14:56;97842.53;;;-1.41;77.21
50774;BME280;36745;48.544;8.918;2023-03-04T01:18:16;97847.22;;;-1.38;77.15
50774;BME280;36745;48.544;8.918;2023-03-04T01:21:36;97843.22;;;-1.44;77.16
50774;BME280;36745;48.544;8.918;2023-03-04T01:24:55;97845.31;;;-1.53;76.85
50774;BME280;36745;48.544;8.918;2023-03-04T01:28:15;97843.72;;;-1.54;77.18
50774;BME280;36745;48.544;8.918;2023-03-04T01:31:35;97836.34;;;-1.57;77.42
50774;BME280;36745;48.544;8.918;2023-03-04T01:34:57;97835.97;;;-1.55;77.15
50774;BME280;36745;48.544;8.918;2023-03-04T01:38:17;97840.94;;;-1.73;77.02
50774;BME280;36745;48.544;8.918;2023-03-04T01:41:37;97833.09;;;-1.78;77.80
50774;BME280;36745;48.544;8.918;2023-03-04T01:44:57;97840.03;;;-1.77;77.99
50774;BME280;36745;48.544;8.918;2023-03-04T01:48:27;97836.09;;;-1.95;77.77
50774;BME280;36745;48.544;8.918;2023-03-04T01:51:51;97839.47;;;-1.98;77.83
50774;BME280;36745;48.544;8.918;2023-03-04T01:55:17;97834.34;;;-2.03;78.20
50774;BME280;36745;48.544;8.918;2023-03-04T01:58:37;97833.41;;;-1.95;78.05
50774;BME280;36745;48.544;8.918;2023-03-04T02:02:00;97829.63;;;-2.06;77.97
50774;BME280;36745;48.544;8.918;2023-03-04T02:05:20;97826.06;;;-2.10;78.05
50774;BME280;36745;48.544;8.918;2023-03-04T02:08:40;97818.88;;;-2.19;78.47
50774;BME280;36745;48.544;8.918;2023-03-04T02:12:00;97812.84;;;-2.28;77.69
50774;BME280;36745;48.544;8.918;2023-03-04T02:15:20;97804.53;;;-2.35;78.64
50774;BME280;36745;48.544;8.918;2023-03-04T02:18:41;97813.03;;;-2.21;78.64
50774;BME280;36745;48.544;8.918;2023-03-04T02:22:01;97815.56;;;-2.28;77.99
50774;BME280;36745;48.544;8.918;2023-03-04T02:25:25;97816.03;;;-2.38;78.72
50774;BME280;36745;48.544;8.918;2023-03-04T02:28:48;97808.53;;;-2.44;78.51
50774;BME280;36745;48.544;8.918;2023-03-04T02:32:11;97817.78;;;-2.58;78.85
50774;BME280;36745;48.544;8.918;2023-03-04T02:35:34;97814.03;;;-2.53;79.56
50774;BME280;36745;48.544;8.918;2023-03-04T02:39:04;97821.03;;;-2.52;79.22
50774;BME280;36745;48.544;8.918;2023-03-04T02:42:24;97815.91;;;-2.69;79.09
50774;BME280;36745;48.544;8.918;2023-03-04T02:49:04;97811.81;;;-2.51;80.15
50774;BME280;36745;48.544;8.918;2023-03-04T02:52:24;97814.03;;;-2.53;79.75
50774;BME280;36745;48.544;8.918;2023-03-04T02:55:45;97812.94;;;-2.52;79.39
50774;BME280;36745;48.544;8.918;2023-03-04T02:59:05;97816.56;;;-2.60;79.38
50774;BME280;36745;48.544;8.918;2023-03-04T03:02:25;97820.28;;;-2.65;79.31
50774;BME280;36745;48.544;8.918;2023-03-04T03:05:45;97813.75;;;-2.64;79.45
50774;BME280;36745;48.544;8.918;2023-03-04T03:09:05;97812.41;;;-2.70;79.31
50774;BME280;36745;48.544;8.918;2023-03-04T03:12:24;97808.75;;;-2.77;80.03
50774;BME280;36745;48.544;8.918;2023-03-04T03:15:44;97816.03;;;-2.66;80.10
50774;BME280;36745;48.544;8.918;2023-03-04T03:19:04;97823.09;;;-2.61;80.56
50774;BME280;36745;48.544;8.918;2023-03-04T03:22:24;97818.34;;;-2.64;79.81
50774;BME280;36745;48.544;8.918;2023-03-04T03:25:44;97821.28;;;-2.69;79.07
50774;BME280;36745;48.544;8.918;2023-03-04T03:29:04;97826.50;;;-2.76;79.78
50774;BME280;36745;48.544;8.918;2023-03-04T03:32:24;97820.66;;;-2.78;79.77
50774;BME280;36745;48.544;8.918;2023-03-04T03:35:44;97817.50;;;-2.80;79.86
50774;BME280;36745;48.544;8.918;2023-03-04T03:39:03;97813.91;;;-2.84;79.86
50774;BME280;36745;48.544;8.918;2023-03-04T03:42:23;97816.84;;;-2.89;79.64
50774;BME280;36745;48.544;8.918;2023-03-04T03:45:43;97816.84;;;-2.89;79.44
50774;BME280;36745;48.544;8.918;2023-03-04T03:49:03;97809.91;;;-3.03;79.66
50774;BME280;36745;48.544;8.918;2023-03-04T03:52:22;97815.09;;;-3.10;80.05
50774;BME280;36745;48.544;8.918;2023-03-04T03:55:42;97815.75;;;-3.13;79.66
50774;BME280;36745;48.544;8.918;2023-03-04T03:59:02;97819.91;;;-3.15;79.57
50774;BME280;36745;48.544;8.918;2023-03-04T04:02:22;97821.16;;;-3.25;80.06
50774;BME280;36745;48.544;8.918;2023-03-04T04:05:42;97822.63;;;-3.27;80.12
50774;BME280;36745;48.544;8.918;2023-03-04T04:09:02;97822.75;;;-3.24;80.29
50774;BME280;36745;48.544;8.918;2023-03-04T04:12:21;97823.97;;;-3.33;80.52
50774;BME280;36745;48.544;8.918;2023-03-04T04:15:41;97830.59;;;-3.43;80.46
50774;BME280;36745;48.544;8.918;2023-03-04T04:19:01;97830.38;;;-3.38;80.58
50774;BME280;36745;48.544;8.918;2023-03-04T04:22:21;97827.78;;;-3.34;80.70
50774;BME280;36745;48.544;8.918;2023-03-04T04:25:40;97823.75;;;-3.41;81.48
50774;BME280;36745;48.544;8.918;2023-03-04T04:29:00;97822.75;;;-3.36;81.55
50774;BME280;36745;48.544;8.918;2023-03-04T04:32:20;97813.75;;;-3.28;81.82
50774;BME280;36745;48.544;8.918;2023-03-04T04:35:41;97815.88;;;-3.21;81.44
50774;BME280;36745;48.544;8.918;2023-03-04T04:39:01;97810.81;;;-3.11;80.77
50774;BME280;36745;48.544;8.918;2023-03-04T04:42:22;97820.03;;;-3.12;80.30
50774;BME280;36745;48.544;8.918;2023-03-04T04:45:41;97818.91;;;-3.11;81.14
50774;BME280;36745;48.544;8.918;2023-03-04T04:49:02;97821.16;;;-3.25;80.32
50774;BME280;36745;48.544;8.918;2023-03-04T04:52:21;97825.44;;;-3.36;80.34
50774;BME280;36745;48.544;8.918;2023-03-04T04:55:41;97823.53;;;-3.48;80.47
50774;BME280;36745;48.544;8.918;2023-03-04T04:59:03;97829.25;;;-3.49;79.77
50774;BME280;36745;48.544;8.918;2023-03-04T05:02:23;97819.81;;;-3.67;80.09
50774;BME280;36745;48.544;8.918;2023-03-04T05:05:43;97829.22;;;-3.73;80.50
50774;BME280;36745;48.544;8.918;2023-03-04T05:09:03;97831.78;;;-3.77;80.74
50774;BME280;36745;48.544;8.918;2023-03-04T05:12:23;97829.78;;;-3.80;80.49
50774;BME280;36745;48.544;8.918;2023-03-04T05:15:43;97822.22;;;-3.87;80.76
50774;BME280;36745;48.544;8.918;2023-03-04T05:19:02;97824.59;;;-3.85;81.30
50774;BME280;36745;48.544;8.918;2023-03-04T05:22:22;97823.13;;;-3.83;81.01
50774;BME280;36745;48.544;8.918;2023-03-04T05:25:42;97826.78;;;-3.99;80.57
50774;BME280;36745;48.544;8.918;2023-03-04T05:29:03;97828.72;;;-4.00;80.24
50774;BME280;36745;48.544;8.918;2023-03-04T05:32:23;97829.84;;;-4.01;81.05
50774;BME280;36745;48.544;8.918;2023-03-04T05:35:43;97820.75;;;-3.96;81.13
50774;BME280;36745;48.544;8.918;2023-03-04T05:39:03;97817.97;;;-3.88;81.25
50774;BME280;36745;48.544;8.918;2023-03-04T05:42:23;97820.22;;;-3.90;81.14
50774;BME280;36745;48.544;8.918;2023-03-04T05:45:42;97823.34;;;-4.00;80.95
50774;BME280;36745;48.544;8.918;2023-03-04T05:49:02;97832.94;;;-4.11;80.71
50774;BME280;36745;48.544;8.918;2023-03-04T05:52:22;97839.88;;;-4.10;80.81
50774;BME280;36745;48.544;8.918;2023-03-04T05:55:45;97833.59;;;-4.14;81.01
50774;BME280;36745;48.544;8.918;2023-03-04T05:59:06;97836.75;;;-4.12;81.40
50774;BME280;36745;48.544;8.918;2023-03-04T06:02:25;97833.59;;;-4.14;80.76
50774;BME280;36745;48.544;8.918;2023-03-04T06:05:45;97833.38;;;-4.21;81.34
50774;BME280;36745;48.544;8.918;2023-03-04T06:09:05;97841.09;;;-4.19;81.78
50774;BME280;36745;48.544;8.918;2023-03-04T06:12:25;97847.53;;;-4.12;81.89
50774;BME280;36745;48.544;8.918;2023-03-04T06:15:44;97846.94;;;-4.17;82.11
50774;BME280;36745;48.544;8.918;2023-03-04T06:19:04;97857.50;;;-4.12;81.99
50774;BME280;36745;48.544;8.918;2023-03-04T06:22:24;97855.66;;;-4.20;81.87
50774;BME280;36745;48.544;8.918;2023-03-04T06:25:44;97860.28;;;-4.21;82.08
50774;BME280;36745;48.544;8.918;2023-03-04T06:29:04;97857.25;;;-4.19;81.42
50774;BME280;36745;48.544;8.918;2023-03-04T06:32:24;97866.81;;;-4.10;82.04
50774;BME280;36745;48.544;8.918;2023-03-04T06:35:44;97870.09;;;-4.04;81.68
50774;BME280;36745;48.544;8.918;2023-03-04T06:39:05;97873.13;;;-4.06;81.64
50774;BME280;36745;48.544;8.918;2023-03-04T06:42:25;97873.81;;;-3.97;81.79
50774;BME280;36745;48.544;8.918;2023-03-04T06:45:45;97876.53;;;-3.97;81.83
50774;BME280;36745;48.544;8.918;2023-03-04T06:49:05;97886.50;;;-3.97;81.81
50774;BME280;36745;48.544;8.918;2023-03-04T06:52:25;97888.19;;;-3.93;81.56
50774;BME280;36745;48.544;8.918;2023-03-04T06:55:46;97885.19;;;-3.91;82.06
50774;BME280;36745;48.544;8.918;2023-03-04T06:59:06;97889.59;;;-3.74;82.78
50774;BME280;36745;48.544;8.918;2023-03-04T07:02:26;97895.78;;;-3.74;82.64
50774;BME280;36745;48.544;8.918;2023-03-04T07:05:45;97886.16;;;-3.63;82.66
50774;BME280;36745;48.544;8.918;2023-03-04T07:09:05;97889.28;;;-3.61;82.67
50774;BME280;36745;48.544;8.918;2023-03-04T07:12:25;97903.81;;;-3.41;83.44
50774;BME280;36745;48.544;8.918;2023-03-04T07:15:45;97898.25;;;-3.24;83.95
50774;BME280;36745;48.544;8.918;2023-03-04T07:19:05;97893.75;;;-3.08;83.80
50774;BME280;36745;48.544;8.918;2023-03-04T07:22:28;97895.06;;;-3.02;83.34
50774;BME280;36745;48.544;8.918;2023-03-04T07:25:50;97890.69;;;-2.94;83.61
50774;BME280;36745;48.544;8.918;2023-03-04T07:29:11;97889.00;;;-2.74;84.64
50774;BME280;36745;48.544;8.918;2023-03-04T07:32:31;97885.00;;;-2.40;84.88
50774;BME280;36745;48.544;8.918;2023-03-04T07:35:59;97889.34;;;-2.24;84.52
50774;BME280;36745;48.544;8.918;2023-03-04T07:39:19;97895.78;;;-2.00;84.23
50774;BME280;36745;48.544;8.918;2023-03-04T07:42:39;97905.06;;;-1.86;84.30
50774;BME280;36745;48.544;8.918;2023-03-04T07:46:00;97905.97;;;-1.66;84.18
50774;BME280;36745;48.544;8.918;2023-03-04T07:49:20;97901.50;;;-1.46;84.41
50774;BME280;36745;48.544;8.918;2023-03-04T07:52:41;97904.09;;;-1.18;84.51
50774;BME280;36745;48.544;8.918;2023-03-04T07:56:02;97905.31;;;-1.00;84.06
50774;BME280;36745;48.544;8.918;2023-03-04T07:59:22;97901.91;;;-0.81;85.63
50774;BME280;36745;48.544;8.918;2023-03-04T08:02:42;97908.06;;;-0.50;85.43
50774;BME280;36745;48.544;8.918;2023-03-04T08:06:04;97914.06;;;-0.21;84.54
50774;BME280;36745;48.544;8.918;2023-03-04T08:09:24;97907.16;;;0.00;84.39
50774;BME280;36745;48.544;8.918;2023-03-04T08:12:44;97917.97;;;0.16;84.65
50774;BME280;36745;48.544;8.918;2023-03-04T08:16:04;97914.72;;;0.30;84.71
50774;BME280;36745;48.544;8.918;2023-03-04T08:19:24;97923.31;;;0.55;84.95
50774;BME280;36745;48.544;8.918;2023-03-04T08:22:44;97927.50;;;0.71;84.71
50774;BME280;36745;48.544;8.918;2023-03-04T08:26:06;97921.25;;;0.90;84.15
50774;BME280;36745;48.544;8.918;2023-03-04T08:29:26;97930.25;;;0.94;83.88
50774;BME280;36745;48.544;8.918;2023-03-04T08:32:46;97934.97;;;0.97;84.20
50774;BME280;36745;48.544;8.918;2023-03-04T08:36:07;97933.00;;;1.20;83.64
50774;BME280;36745;48.544;8.918;2023-03-04T08:39:27;97936.47;;;1.44;83.80
50774;BME280;36745;48.544;8.918;2023-03-04T08:42:47;97938.38;;;1.66;83.68
50774;BME280;36745;48.544;8.918;2023-03-04T08:46:07;97943.06;;;1.69;82.40
50774;BME280;36745;48.544;8.918;2023-03-04T08:49:26;97953.84;;;1.62;81.60
50774;BME280;36745;48.544;8.918;2023-03-04T08:52:46;97948.94;;;0.99;82.00
50774;BME280;36745;48.544;8.918;2023-03-04T08:56:07;97952.25;;;1.12;82.52
50774;BME280;36745;48.544;8.918;2023-03-04T08:59:27;97960.75;;;1.10;82.44
50774;BME280;36745;48.544;8.918;2023-03-04T09:02:46;97961.56;;;1.11;82.31
50774;BME280;36745;48.544;8.918;2023-03-04T09:06:07;97967.53;;;0.97;82.46
50774;BME280;36745;48.544;8.918;2023-03-04T09:09:27;97967.53;;;0.97;82.12
50774;BME280;36745;48.544;8.918;2023-03-04T09:12:47;97966.75;;;0.97;82.34
50774;BME280;36745;48.544;8.918;2023-03-04T09:16:14;97972.59;;;0.99;82.71
50774;BME280;36745;48.544;8.918;2023-03-04T09:19:33;97969.94;;;1.02;82.99
50774;BME280;36745;48.544;8.918;2023-03-04T09:22:53;97968.78;;;1.03;82.85
50774;BME280;36745;48.544;8.918;2023-03-04T09:26:14;97970.66;;;0.99;82.80
50774;BME280;36745;48.544;8.918;2023-03-04T09:29:35;97970.06;;;1.09;82.95
50774;BME280;36745;48.544;8.918;2023-03-04T09:32:54;97968.00;;;0.80;82.33
50774;BME280;36745;48.544;8.918;2023-03-04T09:36:15;97960.41;;;0.89;83.02
50774;BME280;36745;48.544;8.918;2023-03-04T09:39:35;97961.97;;;0.90;82.76
50774;BME280;36745;48.544;8.918;2023-03-04T09:42:59;97967.69;;;0.85;82.94
50774;BME280;36745;48.544;8.918;2023-03-04T09:46:28;97967.06;;;0.72;82.75
50774;BME280;36745;48.544;8.918;2023-03-04T09:49:56;97968.09;;;0.87;84.00
50774;BME280;36745;48.544;8.918;2023-03-04T09:53:22;97966.66;;;0.93;83.69
50774;BME280;36745;48.544;8.918;2023-03-04T09:56:44;97974.47;;;1.17;84.32
50774;BME280;36745;48.544;8.918;2023-03-04T10:00:06;97970.00;;;1.06;82.49
50774;BME280;36745;48.544;8.918;2023-03-04T10:03:54;97970.78;;;1.06;83.56
50774;BME280;36745;48.544;8.918;2023-03-04T10:07:27;97969.66;;;1.07;82.92
50774;BME280;36745;48.544;8.918;2023-03-04T10:10:50;97961.28;;;1.19;82.77
50774;BME280;36745;48.544;8.918;2023-03-04T10:17:43;97957.13;;;1.25;82.15
50774;BME280;36745;48.544;8.918;2023-03-04T10:24:28;97947.88;;;1.53;82.74
50774;BME280;36745;48.544;8.918;2023-03-04T10:27:55;97948.50;;;1.69;82.22
50774;BME280;36745;48.544;8.918;2023-03-04T10:31:34;97950.50;;;1.72;83.37
50774;BME280;36745;48.544;8.918;2023-03-04T10:34:54;97947.31;;;1.96;82.42
50774;BME280;36745;48.544;8.918;2023-03-04T10:38:15;97956.94;;;1.90;80.96
50774;BME280;36745;48.544;8.918;2023-03-04T10:41:42;97951.09;;;1.88;80.98
50774;BME280;36745;48.544;8.918;2023-03-04T10:45:02;97950.69;;;1.86;81.72
50774;BME280;36745;48.544;8.918;2023-03-04T10:48:25;97949.19;;;1.89;81.26
50774;BME280;36745;48.544;8.918;2023-03-04T10:55:20;97944.41;;;2.12;79.90
50774;BME280;36745;48.544;8.918;2023-03-04T10:58:40;97937.53;;;2.22;81.02
50774;BME280;36745;48.544;8.918;2023-03-04T11:05:35;97933.56;;;2.49;79.71
50774;BME280;36745;48.544;8.918;2023-03-04T11:09:00;97926.31;;;2.60;79.19
50774;BME280;36745;48.544;8.918;2023-03-04T11:12:21;97921.13;;;2.85;80.02
50774;BME280;36745;48.544;8.918;2023-03-04T11:15:53;97921.06;;;2.78;78.97
50774;BME280;36745;48.544;8.918;2023-03-04T11:19:16;97913.22;;;2.69;78.11
50774;BME280;36745;48.544;8.918;2023-03-04T11:22:38;97911.72;;;2.75;79.16
50774;BME280;36745;48.544;8.918;2023-03-04T11:26:00;97908.00;;;2.97;78.60
50774;BME280;36745;48.544;8.918;2023-03-04T11:32:50;97901.59;;;2.76;77.84
50774;BME280;36745;48.544;8.918;2023-03-04T11:36:30;97901.38;;;2.91;77.79
50774;BME280;36745;48.544;8.918;2023-03-04T11:47:06;97895.16;;;2.94;77.15
50774;BME280;36745;48.544;8.918;2023-03-04T11:50:50;97887.94;;;3.13;77.60
50774;BME280;36745;48.544;8.918;2023-03-04T12:01:49;97873.19;;;3.21;75.36
50774;BME280;36745;48.544;8.918;2023-03-04T12:05:22;97871.41;;;2.91;74.67
50774;BME280;36745;48.544;8.918;2023-03-04T12:12:29;97855.50;;;3.55;75.21
50774;BME280;36745;48.544;8.918;2023-03-04T12:34:29;97816.81;;;4.15;72.61
50774;BME280;36745;48.544;8.918;2023-03-04T12:41:37;97810.59;;;4.25;71.28
50774;BME280;36745;48.544;8.918;2023-03-04T12:45:19;97799.66;;;4.14;70.02
50774;BME280;36745;48.544;8.918;2023-03-04T13:00:16;97791.13;;;4.41;68.93
50774;BME280;36745;48.544;8.918;2023-03-04T13:11:00;97783.25;;;5.35;69.10
50774;BME280;36745;48.544;8.918;2023-03-04T13:14:23;97779.41;;;5.11;67.38
50774;BME280;36745;48.544;8.918;2023-03-04T13:17:56;97776.28;;;5.09;67.51
50774;BME280;36745;48.544;8.918;2023-03-04T13:21:23;97769.53;;;5.60;68.70
50774;BME280;36745;48.544;8.918;2023-03-04T13:24:47;97778.63;;;5.14;64.68
50774;BME280;36745;48.544;8.918;2023-03-04T13:31:30;97774.66;;;5.51;65.96
50774;BME280;36745;48.544;8.918;2023-03-04T13:34:51;97768.84;;;5.13;64.27
50774;BME280;36745;48.544;8.918;2023-03-04T13:41:56;97765.78;;;4.54;65.37
50774;BME280;36745;48.544;8.918;2023-03-04T13:45:35;97767.69;;;5.14;66.11
50774;BME280;36745;48.544;8.918;2023-03-04T13:49:01;97762.16;;;5.49;63.60
50774;BME280;36745;48.544;8.918;2023-03-04T13:52:37;97775.16;;;4.89;63.10
50774;BME280;36745;48.544;8.918;2023-03-04T13:56:03;97779.44;;;4.69;63.54
50774;BME280;36745;48.544;8.918;2023-03-04T14:02:48;97769.31;;;4.69;64.44
50774;BME280;36745;48.544;8.918;2023-03-04T14:06:28;97768.50;;;4.76;63.86
50774;BME280;36745;48.544;8.918;2023-03-04T14:09:58;97773.97;;;4.40;62.82
50774;BME280;36745;48.544;8.918;2023-03-04T14:13:18;97766.53;;;4.23;63.48
50774;BME280;36745;48.544;8.918;2023-03-04T14:16:44;97765.75;;;4.19;63.36
50774;BME280;36745;48.544;8.918;2023-03-04T14:20:35;97760.69;;;4.21;63.77
50774;BME280;36745;48.544;8.918;2023-03-04T14:24:16;97762.22;;;4.08;63.52
50774;BME280;36745;48.544;8.918;2023-03-04T14:27:36;97753.97;;;3.87;63.93
50774;BME280;36745;48.544;8.918;2023-03-04T14:30:56;97743.16;;;4.15;64.15
50774;BME280;36745;48.544;8.918;2023-03-04T14:34:28;97744.34;;;4.42;63.69
50774;BME280;36745;48.544;8.918;2023-03-04T14:38:06;97745.88;;;4.22;63.33
50774;BME280;36745;48.544;8.918;2023-03-04T14:41:38;97743.44;;;3.82;63.93
50774;BME280;36745;48.544;8.918;2023-03-04T14:45:00;97745.00;;;3.79;63.74
50774;BME280;36745;48.544;8.918;2023-03-04T14:48:24;97749.84;;;3.31;64.58
50774;BME280;36745;48.544;8.918;2023-03-04T14:51:51;97744.03;;;3.29;65.63
50774;BME280;36745;48.544;8.918;2023-03-04T14:55:26;97737.81;;;3.32;65.11
50774;BME280;36745;48.544;8.918;2023-03-04T14:58:57;97737.84;;;3.39;65.15
50774;BME280;36745;48.544;8.918;2023-03-04T15:02:24;97737.09;;;3.49;65.42
50774;BME280;36745;48.544;8.918;2023-03-04T15:05:49;97737.66;;;3.04;65.65
50774;BME280;36745;48.544;8.918;2023-03-04T15:09:23;97743.75;;;2.86;66.13
50774;BME280;36745;48.544;8.918;2023-03-04T15:12:50;97747.66;;;2.85;66.54
50774;BME280;36745;48.544;8.918;2023-03-04T15:16:12;97751.41;;;2.67;66.35
50774;BME280;36745;48.544;8.918;2023-03-04T15:19:32;97747.44;;;2.53;66.74
50774;BME280;36745;48.544;8.918;2023-03-04T15:26:12;97751.63;;;2.95;67.40
50774;BME280;36745;48.544;8.918;2023-03-04T15:29:32;97753.13;;;2.89;66.41
50774;BME280;36745;48.544;8.918;2023-03-04T15:32:54;97752.41;;;2.95;67.12
50774;BME280;36745;48.544;8.918;2023-03-04T15:36:19;97754.91;;;2.67;67.03
50774;BME280;36745;48.544;8.918;2023-03-04T15:39:39;97750.44;;;2.41;67.38
50774;BME280;36745;48.544;8.918;2023-03-04T15:43:01;97752.72;;;2.36;68.20
50774;BME280;36745;48.544;8.918;2023-03-04T15:46:22;97753.53;;;2.40;68.52
50774;BME280;36745;48.544;8.918;2023-03-04T15:49:43;97757.34;;;2.32;68.70
50774;BME280;36745;48.544;8.918;2023-03-04T15:53:11;97760.28;;;2.13;69.29
50774;BME280;36745;48.544;8.918;2023-03-04T15:56:33;97754.56;;;2.25;69.24
50774;BME280;36745;48.544;8.918;2023-03-04T15:59:53;97759.59;;;2.23;69.14
50774;BME280;36745;48.544;8.918;2023-03-04T16:03:17;97753.34;;;2.19;69.32
50774;BME280;36745;48.544;8.918;2023-03-04T16:06:37;97758.84;;;2.26;69.92
50774;BME280;36745;48.544;8.918;2023-03-04T16:10:04;97760.56;;;2.44;69.26
50774;BME280;36745;48.544;8.918;2023-03-04T16:13:25;97759.00;;;2.43;69.42
50774;BME280;36745;48.544;8.918;2023-03-04T16:16:45;97758.63;;;2.45;69.23
50774;BME280;36745;48.544;8.918;2023-03-04T16:20:05;97756.69;;;2.49;69.46
50774;BME280;36745;48.544;8.918;2023-03-04T16:23:25;97767.06;;;2.33;69.86
50774;BME280;36745;48.544;8.918;2023-03-04T16:26:45;97766.94;;;2.19;69.48
50774;BME280;36745;48.544;8.918;2023-03-04T16:30:07;97763.34;;;2.11;70.01
50774;BME280;36745;48.544;8.918;2023-03-04T16:33:27;97764.91;;;2.12;70.24
50774;BME280;36745;48.544;8.918;2023-03-04T16:36:47;97755.91;;;2.45;69.91
50774;BME280;36745;48.544;8.918;2023-03-04T16:40:10;97759.06;;;2.50;69.66
50774;BME280;36745;48.544;8.918;2023-03-04T16:43:31;97769.03;;;2.36;70.02
50774;BME280;36745;48.544;8.918;2023-03-04T16:46:50;97759.78;;;2.44;70.34
50774;BME280;36745;48.544;8.918;2023-03-04T16:50:18;97762.50;;;2.44;69.51
50774;BME280;36745;48.544;8.918;2023-03-04T16:53:39;97759.03;;;2.47;70.22
50774;BME280;36745;48.544;8.918;2023-03-04T16:56:59;97762.06;;;2.38;70.06
50774;BME280;36745;48.544;8.918;2023-03-04T17:00:20;97755.00;;;2.30;70.00
50774;BME280;36745;48.544;8.918;2023-03-04T17:03:40;97764.34;;;2.33;70.35
50774;BME280;36745;48.544;8.918;2023-03-04T17:07:00;97766.00;;;2.44;69.92
50774;BME280;36745;48.544;8.918;2023-03-04T17:10:21;97767.19;;;2.47;70.65
50774;BME280;36745;48.544;8.918;2023-03-04T17:13:41;97768.09;;;2.65;70.27
50774;BME280;36745;48.544;8.918;2023-03-04T17:17:03;97771.66;;;2.69;70.21
50774;BME280;36745;48.544;8.918;2023-03-04T17:20:23;97765.38;;;2.65;70.05
50774;BME280;36745;48.544;8.918;2023-03-04T17:23:43;97773.59;;;2.69;70.15
50774;BME280;36745;48.544;8.918;2023-03-04T17:27:03;97785.09;;;2.48;70.62
50774;BME280;36745;48.544;8.918;2023-03-04T17:30:23;97790.22;;;2.60;69.72
50774;BME280;36745;48.544;8.918;2023-03-04T17:33:44;97784.25;;;2.44;69.91
50774;BME280;36745;48.544;8.918;2023-03-04T17:37:04;97796.25;;;2.36;69.99
50774;BME280;36745;48.544;8.918;2023-03-04T17:40:26;97797.13;;;2.47;70.27
50774;BME280;36745;48.544;8.918;2023-03-04T17:43:48;97792.50;;;2.51;70.85
50774;BME280;36745;48.544;8.918;2023-03-04T17:47:09;97798.69;;;2.48;71.34
50774;BME280;36745;48.544;8.918;2023-03-04T17:50:28;97799.69;;;2.73;70.99
50774;BME280;36745;48.544;8.918;2023-03-04T17:53:49;97797.41;;;2.82;70.68
50774;BME280;36745;48.544;8.918;2023-03-04T17:57:08;97794.34;;;2.87;71.12
50774;BME280;36745;48.544;8.918;2023-03-04T18:00:28;97803.63;;;2.79;70.36
50774;BME280;36745;48.544;8.918;2023-03-04T18:03:49;97795.88;;;2.85;70.56
50774;BME280;36745;48.544;8.918;2023-03-04T18:07:09;97804.06;;;2.85;70.65
50774;BME280;36745;48.544;8.918;2023-03-04T18:10:29;97800.19;;;2.89;70.78
50774;BME280;36745;48.544;8.918;2023-03-04T18:13:49;97794.34;;;2.87;70.25
50774;BME280;36745;48.544;8.918;2023-03-04T18:17:09;97795.91;;;2.88;70.86
50774;BME280;36745;48.544;8.918;2023-03-04T18:20:29;97794.41;;;2.94;70.59
50774;BME280;36745;48.544;8.918;2023-03-04T18:23:49;97795.50;;;2.86;70.93
50774;BME280;36745;48.544;8.918;2023-03-04T18:27:09;97797.41;;;2.82;71.47
50774;BME280;36745;48.544;8.918;2023-03-04T18:30:29;97793.88;;;2.75;71.28
50774;BME280;36745;48.544;8.918;2023-03-04T18:33:49;97792.78;;;2.86;70.83
50774;BME280;36745;48.544;8.918;2023-03-04T18:37:08;97791.69;;;2.94;70.99
50774;BME280;36745;48.544;8.918;2023-03-04T18:40:28;97786.59;;;2.93;71.27
50774;BME280;36745;48.544;8.918;2023-03-04T18:43:48;97787.31;;;2.86;71.10
50774;BME280;36745;48.544;8.918;2023-03-04T18:47:09;97790.41;;;2.81;71.15
50774;BME280;36745;48.544;8.918;2023-03-04T18:50:30;97792.34;;;2.81;71.28
50774;BME280;36745;48.544;8.918;2023-03-04T18:53:50;97787.31;;;2.86;71.25
50774;BME280;36745;48.544;8.918;2023-03-04T18:57:12;97782.72;;;2.90;71.91
50774;BME280;36745;48.544;8.918;2023-03-04T19:00:32;97788.25;;;3.05;71.17
50774;BME280;36745;48.544;8.918;2023-03-04T19:03:52;97782.28;;;2.88;70.97
50774;BME280;36745;48.544;8.918;2023-03-04T19:07:17;97770.97;;;2.79;71.23
50774;BME280;36745;48.544;8.918;2023-03-04T19:10:37;97767.84;;;2.81;71.59
50774;BME280;36745;48.544;8.918;2023-03-04T19:13:57;97772.47;;;2.73;71.44
50774;BME280;36745;48.544;8.918;2023-03-04T19:17:17;97777.19;;;2.83;72.16
50774;BME280;36745;48.544;8.918;2023-03-04T19:20:39;97774.09;;;2.85;71.90
50774;BME280;36745;48.544;8.918;2023-03-04T19:23:59;97769.38;;;2.78;72.19
50774;BME280;36745;48.544;8.918;2023-03-04T19:27:19;97769.44;;;2.85;72.08
50774;BME280;36745;48.544;8.918;2023-03-04T19:30:40;97763.16;;;2.78;71.83